sensor_id;sensor_type;location;lat;lon;timestamp;P1;durP1;ratioP1;P2;durP2;ratioP2
21615;SDS011;10970;48.714;9.584;2022-08-03T00:01:40;4.90;;;4.27;;
21615;SDS011;10970;48.714;9.584;2022-08-03T00:04:07;5.13;;;4.00;;
21615;SDS011;10970;48.714;9.584;2022-08-03T00:06:34;4.90;;;4.40;;
21615;SDS011;10970;48.714;9.584;2022-08-03T00:09:00;4.80;;;4.47;;
21615;SDS011;10970;48.714;9.584;2022-08-03T00:11:25;3.80;;;3.50;;
21615;SDS011;10970;48.714;9.584;2022-08-03T00:13:51;3.93;;;3.63;;
21615;SDS011;10970;48.714;9.584;2022-08-03T00:16:17;6.10;;;4.43;;
21615;SDS011;10970;48.714;9.584;2022-08-03T00:18:43;4.53;;;4.23;;
21615;SDS011;10970;48.714;9.584;2022-08-03T00:21:09;4.80;;;4.40;;
21615;SDS011;10970;48.714;9.584;2022-08-03T00:23:36;4.73;;;3.37;;
21615;SDS011;10970;48.714;9.584;2022-08-03T00:26:02;4.77;;;4.40;;
21615;SDS011;10970;48.714;9.584;2022-08-03T00:28:27;3.80;;;3.50;;
21615;SDS011;10970;48.714;9.584;2022-08-03T00:30:53;4.07;;;3.70;;
21615;SDS011;10970;48.714;9.584;2022-08-03T00:33:19;4.30;;;4.00;;
21615;SDS011;10970;48.714;9.584;2022-08-03T00:35:46;3.70;;;3.40;;
21615;SDS011;10970;48.714;9.584;2022-08-03T00:38:12;4.73;;;4.33;;
21615;SDS011;10970;48.714;9.584;2022-08-03T00:40:38;4.00;;;3.70;;
21615;SDS011;10970;48.714;9.584;2022-08-03T00:43:04;5.13;;;4.73;;
21615;SDS011;10970;48.714;9.584;2022-08-03T00:45:32;4.27;;;3.90;;
21615;SDS011;10970;48.714;9.584;2022-08-03T00:47:59;6.97;;;4.40;;
21615;SDS011;10970;48.714;9.584;2022-08-03T00:50:28;4.17;;;3.77;;
21615;SDS011;10970;48.714;9.584;2022-08-03T00:52:55;4.53;;;4.23;;
21615;SDS011;10970;48.714;9.584;2022-08-03T00:55:22;5.07;;;4.67;;
21615;SDS011;10970;48.714;9.584;2022-08-03T00:57:48;4.93;;;4.50;;
21615;SDS011;10970;48.714;9.584;2022-08-03T01:00:15;6.40;;;4.50;;
21615;SDS011;10970;48.714;9.584;2022-08-03T01:02:43;5.30;;;4.80;;
21615;SDS011;10970;48.714;9.584;2022-08-03T01:05:10;10.40;;;4.27;;
21615;SDS011;10970;48.714;9.584;2022-08-03T01:13:23;5.10;;;4.60;;
21615;SDS011;10970;48.714;9.584;2022-08-03T01:18:54;7.00;;;4.60;;
21615;SDS011;10970;48.714;9.584;2022-08-03T01:21:25;4.47;;;4.07;;
21615;SDS011;10970;48.714;9.584;2022-08-03T01:31:54;5.07;;;4.67;;
21615;SDS011;10970;48.714;9.584;2022-08-03T01:34:27;4.40;;;4.00;;
21615;SDS011;10970;48.714;9.584;2022-08-03T01:36:55;4.93;;;4.63;;
21615;SDS011;10970;48.714;9.584;2022-08-03T01:39:21;4.50;;;4.20;;
21615;SDS011;10970;48.714;9.584;2022-08-03T01:41:50;4.37;;;3.97;;
21615;SDS011;10970;48.714;9.584;2022-08-03T01:44:24;4.73;;;4.33;;
21615;SDS011;10970;48.714;9.584;2022-08-03T01:46:50;5.40;;;4.73;;
21615;SDS011;10970;48.714;9.584;2022-08-03T01:49:17;3.90;;;3.60;;
21615;SDS011;10970;48.714;9.584;2022-08-03T01:51:44;4.73;;;4.33;;
21615;SDS011;10970;48.714;9.584;2022-08-03T01:54:12;4.50;;;4.20;;
21615;SDS011;10970;48.714;9.584;2022-08-03T01:56:39;5.20;;;4.17;;
21615;SDS011;10970;48.714;9.584;2022-08-03T01:59:07;4.40;;;4.00;;
21615;SDS011;10970;48.714;9.584;2022-08-03T02:01:35;5.13;;;4.73;;
21615;SDS011;10970;48.714;9.584;2022-08-03T02:04:02;4.57;;;4.17;;
21615;SDS011;10970;48.714;9.584;2022-08-03T02:06:31;5.07;;;4.57;;
21615;SDS011;10970;48.714;9.584;2022-08-03T02:08:58;6.33;;;5.00;;
21615;SDS011;10970;48.714;9.584;2022-08-03T02:11:26;5.17;;;4.77;;
21615;SDS011;10970;48.714;9.584;2022-08-03T02:13:54;4.57;;;4.17;;
21615;SDS011;10970;48.714;9.584;2022-08-03T02:16:22;5.93;;;5.40;;
21615;SDS011;10970;48.714;9.584;2022-08-03T02:18:48;4.30;;;4.00;;
21615;SDS011;10970;48.714;9.584;2022-08-03T02:21:15;4.90;;;4.50;;
21615;SDS011;10970;48.714;9.584;2022-08-03T02:23:41;4.27;;;3.90;;
21615;SDS011;10970;48.714;9.584;2022-08-03T02:26:08;4.47;;;4.00;;
21615;SDS011;10970;48.714;9.584;2022-08-03T02:28:40;5.30;;;4.63;;
21615;SDS011;10970;48.714;9.584;2022-08-03T02:31:13;5.43;;;5.00;;
21615;SDS011;10970;48.714;9.584;2022-08-03T02:33:42;4.97;;;4.57;;
21615;SDS011;10970;48.714;9.584;2022-08-03T02:36:12;4.27;;;3.97;;
21615;SDS011;10970;48.714;9.584;2022-08-03T02:38:40;6.17;;;5.60;;
21615;SDS011;10970;48.714;9.584;2022-08-03T02:41:12;5.67;;;3.80;;
21615;SDS011;10970;48.714;9.584;2022-08-03T02:43:42;4.50;;;3.60;;
21615;SDS011;10970;48.714;9.584;2022-08-03T02:46:12;5.67;;;4.40;;
21615;SDS011;10970;48.714;9.584;2022-08-03T02:48:42;4.60;;;4.23;;
21615;SDS011;10970;48.714;9.584;2022-08-03T02:51:10;4.87;;;4.33;;
21615;SDS011;10970;48.714;9.584;2022-08-03T02:53:36;5.40;;;3.83;;
21615;SDS011;10970;48.714;9.584;2022-08-03T02:56:04;4.70;;;4.30;;
21615;SDS011;10970;48.714;9.584;2022-08-03T02:58:30;4.50;;;4.00;;
21615;SDS011;10970;48.714;9.584;2022-08-03T03:00:57;4.73;;;4.33;;
21615;SDS011;10970;48.714;9.584;2022-08-03T03:03:23;5.57;;;4.53;;
21615;SDS011;10970;48.714;9.584;2022-08-03T03:05:50;5.70;;;5.30;;
21615;SDS011;10970;48.714;9.584;2022-08-03T03:08:19;4.63;;;3.93;;
21615;SDS011;10970;48.714;9.584;2022-08-03T03:10:46;4.20;;;3.90;;
21615;SDS011;10970;48.714;9.584;2022-08-03T03:13:12;4.23;;;3.83;;
21615;SDS011;10970;48.714;9.584;2022-08-03T03:15:39;4.20;;;3.90;;
21615;SDS011;10970;48.714;9.584;2022-08-03T03:18:06;4.77;;;4.37;;
21615;SDS011;10970;48.714;9.584;2022-08-03T03:20:34;8.70;;;5.40;;
21615;SDS011;10970;48.714;9.584;2022-08-03T03:23:02;4.13;;;3.70;;
21615;SDS011;10970;48.714;9.584;2022-08-03T03:25:32;4.67;;;4.37;;
21615;SDS011;10970;48.714;9.584;2022-08-03T03:27:59;3.87;;;3.57;;
21615;SDS011;10970;48.714;9.584;2022-08-03T03:30:26;7.13;;;4.60;;
21615;SDS011;10970;48.714;9.584;2022-08-03T03:32:52;7.20;;;4.67;;
21615;SDS011;10970;48.714;9.584;2022-08-03T03:35:18;5.83;;;4.37;;
21615;SDS011;10970;48.714;9.584;2022-08-03T03:37:44;6.00;;;4.23;;
21615;SDS011;10970;48.714;9.584;2022-08-03T03:40:11;4.50;;;4.10;;
21615;SDS011;10970;48.714;9.584;2022-08-03T03:42:37;7.23;;;4.40;;
21615;SDS011;10970;48.714;9.584;2022-08-03T03:45:03;3.70;;;3.40;;
21615;SDS011;10970;48.714;9.584;2022-08-03T03:47:29;4.00;;;3.70;;
21615;SDS011;10970;48.714;9.584;2022-08-03T03:49:56;4.10;;;3.80;;
21615;SDS011;10970;48.714;9.584;2022-08-03T03:52:23;3.53;;;3.33;;
21615;SDS011;10970;48.714;9.584;2022-08-03T03:54:49;4.13;;;3.83;;
21615;SDS011;10970;48.714;9.584;2022-08-03T03:57:15;3.83;;;3.53;;
21615;SDS011;10970;48.714;9.584;2022-08-03T03:59:41;4.17;;;3.77;;
21615;SDS011;10970;48.714;9.584;2022-08-03T04:02:08;3.37;;;3.07;;
21615;SDS011;10970;48.714;9.584;2022-08-03T04:04:35;4.70;;;4.30;;
21615;SDS011;10970;48.714;9.584;2022-08-03T04:07:20;3.87;;;3.57;;
21615;SDS011;10970;48.714;9.584;2022-08-03T04:10:17;3.87;;;3.57;;
21615;SDS011;10970;48.714;9.584;2022-08-03T04:13:06;4.50;;;4.10;;
21615;SDS011;10970;48.714;9.584;2022-08-03T04:15:34;4.10;;;3.70;;
21615;SDS011;10970;48.714;9.584;2022-08-03T04:18:05;4.60;;;4.07;;
21615;SDS011;10970;48.714;9.584;2022-08-03T04:20:35;4.67;;;4.30;;
21615;SDS011;10970;48.714;9.584;2022-08-03T04:23:03;4.40;;;4.07;;
21615;SDS011;10970;48.714;9.584;2022-08-03T04:25:30;4.03;;;3.63;;
21615;SDS011;10970;48.714;9.584;2022-08-03T04:27:59;5.07;;;4.10;;
21615;SDS011;10970;48.714;9.584;2022-08-03T04:30:25;6.30;;;4.73;;
21615;SDS011;10970;48.714;9.584;2022-08-03T04:32:55;6.47;;;4.90;;
21615;SDS011;10970;48.714;9.584;2022-08-03T04:35:25;4.70;;;4.30;;
21615;SDS011;10970;48.714;9.584;2022-08-03T04:37:52;4.83;;;4.43;;
21615;SDS011;10970;48.714;9.584;2022-08-03T04:40:29;4.50;;;4.10;;
21615;SDS011;10970;48.714;9.584;2022-08-03T04:42:57;5.53;;;5.03;;
21615;SDS011;10970;48.714;9.584;2022-08-03T04:45:24;3.77;;;3.57;;
21615;SDS011;10970;48.714;9.584;2022-08-03T04:47:52;6.23;;;4.90;;
21615;SDS011;10970;48.714;9.584;2022-08-03T04:50:18;5.93;;;5.37;;
21615;SDS011;10970;48.714;9.584;2022-08-03T04:52:44;5.53;;;5.00;;
21615;SDS011;10970;48.714;9.584;2022-08-03T04:55:11;5.80;;;5.33;;
21615;SDS011;10970;48.714;9.584;2022-08-03T04:57:37;5.67;;;5.17;;
21615;SDS011;10970;48.714;9.584;2022-08-03T05:00:03;6.23;;;5.67;;
21615;SDS011;10970;48.714;9.584;2022-08-03T05:02:30;6.43;;;5.83;;
21615;SDS011;10970;48.714;9.584;2022-08-03T05:04:56;5.77;;;5.17;;
21615;SDS011;10970;48.714;9.584;2022-08-03T05:07:22;8.60;;;5.37;;
21615;SDS011;10970;48.714;9.584;2022-08-03T05:09:47;6.30;;;5.17;;
21615;SDS011;10970;48.714;9.584;2022-08-03T05:12:14;5.30;;;4.90;;
21615;SDS011;10970;48.714;9.584;2022-08-03T05:14:40;5.47;;;5.07;;
21615;SDS011;10970;48.714;9.584;2022-08-03T05:17:09;4.97;;;4.57;;
21615;SDS011;10970;48.714;9.584;2022-08-03T05:19:34;5.90;;;5.40;;
21615;SDS011;10970;48.714;9.584;2022-08-03T05:22:00;5.17;;;4.67;;
21615;SDS011;10970;48.714;9.584;2022-08-03T05:24:27;4.83;;;4.20;;
21615;SDS011;10970;48.714;9.584;2022-08-03T05:26:53;5.60;;;4.60;;
21615;SDS011;10970;48.714;9.584;2022-08-03T05:29:19;5.70;;;5.20;;
21615;SDS011;10970;48.714;9.584;2022-08-03T05:31:45;5.80;;;5.33;;
21615;SDS011;10970;48.714;9.584;2022-08-03T05:34:11;8.40;;;6.00;;
21615;SDS011;10970;48.714;9.584;2022-08-03T05:36:37;4.90;;;4.50;;
21615;SDS011;10970;48.714;9.584;2022-08-03T05:39:03;5.20;;;4.70;;
21615;SDS011;10970;48.714;9.584;2022-08-03T05:41:29;6.90;;;4.17;;
21615;SDS011;10970;48.714;9.584;2022-08-03T05:43:55;5.87;;;4.10;;
21615;SDS011;10970;48.714;9.584;2022-08-03T05:46:22;4.50;;;4.20;;
21615;SDS011;10970;48.714;9.584;2022-08-03T05:48:48;4.70;;;4.20;;
21615;SDS011;10970;48.714;9.584;2022-08-03T05:51:14;5.77;;;4.80;;
21615;SDS011;10970;48.714;9.584;2022-08-03T05:53:40;5.63;;;5.13;;
21615;SDS011;10970;48.714;9.584;2022-08-03T05:56:07;4.60;;;4.20;;
21615;SDS011;10970;48.714;9.584;2022-08-03T05:58:33;7.33;;;4.37;;
21615;SDS011;10970;48.714;9.584;2022-08-03T06:00:59;4.90;;;4.50;;
21615;SDS011;10970;48.714;9.584;2022-08-03T06:03:28;5.77;;;5.00;;
21615;SDS011;10970;48.714;9.584;2022-08-03T06:05:53;5.27;;;4.10;;
21615;SDS011;10970;48.714;9.584;2022-08-03T06:08:20;3.83;;;3.43;;
21615;SDS011;10970;48.714;9.584;2022-08-03T06:10:46;5.73;;;5.23;;
21615;SDS011;10970;48.714;9.584;2022-08-03T06:13:12;3.83;;;3.53;;
21615;SDS011;10970;48.714;9.584;2022-08-03T06:15:38;4.33;;;3.90;;
21615;SDS011;10970;48.714;9.584;2022-08-03T06:18:04;6.07;;;5.30;;
21615;SDS011;10970;48.714;9.584;2022-08-03T06:20:31;5.97;;;3.70;;
21615;SDS011;10970;48.714;9.584;2022-08-03T06:22:58;4.07;;;3.77;;
21615;SDS011;10970;48.714;9.584;2022-08-03T06:25:24;6.70;;;4.47;;
21615;SDS011;10970;48.714;9.584;2022-08-03T06:27:50;6.40;;;3.77;;
21615;SDS011;10970;48.714;9.584;2022-08-03T06:30:16;4.97;;;4.60;;
21615;SDS011;10970;48.714;9.584;2022-08-03T06:32:43;4.60;;;4.07;;
21615;SDS011;10970;48.714;9.584;2022-08-03T06:35:09;5.37;;;3.73;;
21615;SDS011;10970;48.714;9.584;2022-08-03T06:37:44;3.53;;;3.30;;
21615;SDS011;10970;48.714;9.584;2022-08-03T06:40:12;3.50;;;3.20;;
21615;SDS011;10970;48.714;9.584;2022-08-03T06:42:40;4.20;;;3.80;;
21615;SDS011;10970;48.714;9.584;2022-08-03T06:45:06;3.80;;;3.27;;
21615;SDS011;10970;48.714;9.584;2022-08-03T06:47:34;3.00;;;2.80;;
21615;SDS011;10970;48.714;9.584;2022-08-03T06:50:02;4.50;;;3.20;;
21615;SDS011;10970;48.714;9.584;2022-08-03T06:52:29;4.17;;;3.83;;
21615;SDS011;10970;48.714;9.584;2022-08-03T06:54:55;3.53;;;3.23;;
21615;SDS011;10970;48.714;9.584;2022-08-03T06:57:21;2.70;;;2.50;;
21615;SDS011;10970;48.714;9.584;2022-08-03T06:59:47;3.20;;;2.90;;
21615;SDS011;10970;48.714;9.584;2022-08-03T07:02:13;5.70;;;2.93;;
21615;SDS011;10970;48.714;9.584;2022-08-03T07:04:39;4.40;;;3.17;;
21615;SDS011;10970;48.714;9.584;2022-08-03T07:07:05;3.60;;;3.30;;
21615;SDS011;10970;48.714;9.584;2022-08-03T07:09:31;2.90;;;2.60;;
21615;SDS011;10970;48.714;9.584;2022-08-03T07:11:57;3.23;;;2.53;;
21615;SDS011;10970;48.714;9.584;2022-08-03T07:14:23;2.37;;;2.17;;
21615;SDS011;10970;48.714;9.584;2022-08-03T07:16:49;3.40;;;3.10;;
21615;SDS011;10970;48.714;9.584;2022-08-03T07:19:15;3.23;;;2.53;;
21615;SDS011;10970;48.714;9.584;2022-08-03T07:21:41;3.80;;;3.40;;
21615;SDS011;10970;48.714;9.584;2022-08-03T07:24:07;3.37;;;2.93;;
21615;SDS011;10970;48.714;9.584;2022-08-03T07:26:33;2.97;;;2.50;;
21615;SDS011;10970;48.714;9.584;2022-08-03T07:28:59;3.43;;;2.73;;
21615;SDS011;10970;48.714;9.584;2022-08-03T07:31:25;3.67;;;3.37;;
21615;SDS011;10970;48.714;9.584;2022-08-03T07:33:51;2.77;;;2.43;;
21615;SDS011;10970;48.714;9.584;2022-08-03T07:36:17;7.07;;;2.40;;
21615;SDS011;10970;48.714;9.584;2022-08-03T07:38:43;2.63;;;2.43;;
21615;SDS011;10970;48.714;9.584;2022-08-03T07:41:09;5.47;;;3.30;;
21615;SDS011;10970;48.714;9.584;2022-08-03T07:43:38;3.53;;;3.20;;
21615;SDS011;10970;48.714;9.584;2022-08-03T07:46:03;2.87;;;2.67;;
21615;SDS011;10970;48.714;9.584;2022-08-03T07:48:29;2.40;;;2.20;;
21615;SDS011;10970;48.714;9.584;2022-08-03T07:50:55;3.63;;;2.60;;
21615;SDS011;10970;48.714;9.584;2022-08-03T07:53:21;2.37;;;2.17;;
21615;SDS011;10970;48.714;9.584;2022-08-03T07:55:47;2.40;;;2.20;;
21615;SDS011;10970;48.714;9.584;2022-08-03T07:58:13;3.57;;;2.50;;
21615;SDS011;10970;48.714;9.584;2022-08-03T08:00:42;2.23;;;2.03;;
21615;SDS011;10970;48.714;9.584;2022-08-03T08:03:09;2.83;;;1.93;;
21615;SDS011;10970;48.714;9.584;2022-08-03T08:05:35;2.57;;;2.37;;
21615;SDS011;10970;48.714;9.584;2022-08-03T08:08:02;3.10;;;2.67;;
21615;SDS011;10970;48.714;9.584;2022-08-03T08:10:28;2.67;;;2.47;;
21615;SDS011;10970;48.714;9.584;2022-08-03T08:12:54;9.23;;;3.17;;
21615;SDS011;10970;48.714;9.584;2022-08-03T08:15:20;1.80;;;1.70;;
21615;SDS011;10970;48.714;9.584;2022-08-03T08:17:51;4.60;;;2.13;;
21615;SDS011;10970;48.714;9.584;2022-08-03T08:20:22;3.50;;;2.57;;
21615;SDS011;10970;48.714;9.584;2022-08-03T08:22:49;2.97;;;2.20;;
21615;SDS011;10970;48.714;9.584;2022-08-03T08:25:15;3.93;;;2.50;;
21615;SDS011;10970;48.714;9.584;2022-08-03T08:27:46;2.50;;;2.30;;
21615;SDS011;10970;48.714;9.584;2022-08-03T08:30:14;1.87;;;1.67;;
21615;SDS011;10970;48.714;9.584;2022-08-03T08:32:41;3.30;;;2.00;;
21615;SDS011;10970;48.714;9.584;2022-08-03T08:35:07;4.23;;;1.67;;
21615;SDS011;10970;48.714;9.584;2022-08-03T08:37:33;1.97;;;1.80;;
21615;SDS011;10970;48.714;9.584;2022-08-03T08:39:59;2.53;;;2.33;;
21615;SDS011;10970;48.714;9.584;2022-08-03T08:42:25;4.57;;;2.23;;
21615;SDS011;10970;48.714;9.584;2022-08-03T08:44:51;1.50;;;1.40;;
21615;SDS011;10970;48.714;9.584;2022-08-03T08:47:23;3.50;;;1.70;;
21615;SDS011;10970;48.714;9.584;2022-08-03T08:49:53;4.90;;;2.07;;
21615;SDS011;10970;48.714;9.584;2022-08-03T08:52:23;5.10;;;1.97;;
21615;SDS011;10970;48.714;9.584;2022-08-03T08:55:00;1.90;;;1.70;;
21615;SDS011;10970;48.714;9.584;2022-08-03T08:57:33;1.50;;;1.40;;
21615;SDS011;10970;48.714;9.584;2022-08-03T09:00:04;1.30;;;1.20;;
21615;SDS011;10970;48.714;9.584;2022-08-03T09:02:35;1.13;;;1.10;;
21615;SDS011;10970;48.714;9.584;2022-08-03T09:05:01;2.17;;;1.70;;
21615;SDS011;10970;48.714;9.584;2022-08-03T09:07:28;1.73;;;1.63;;
21615;SDS011;10970;48.714;9.584;2022-08-03T09:09:54;1.20;;;1.10;;
21615;SDS011;10970;48.714;9.584;2022-08-03T09:12:20;3.33;;;1.20;;
21615;SDS011;10970;48.714;9.584;2022-08-03T09:14:46;2.30;;;1.17;;
21615;SDS011;10970;48.714;9.584;2022-08-03T09:17:13;1.20;;;1.10;;
21615;SDS011;10970;48.714;9.584;2022-08-03T09:19:39;1.50;;;1.40;;
21615;SDS011;10970;48.714;9.584;2022-08-03T09:22:13;3.20;;;1.00;;
21615;SDS011;10970;48.714;9.584;2022-08-03T09:24:56;1.20;;;1.10;;
21615;SDS011;10970;48.714;9.584;2022-08-03T09:27:23;1.90;;;1.30;;
21615;SDS011;10970;48.714;9.584;2022-08-03T09:29:50;3.10;;;1.40;;
21615;SDS011;10970;48.714;9.584;2022-08-03T09:32:20;4.30;;;1.27;;
21615;SDS011;10970;48.714;9.584;2022-08-03T09:34:47;3.80;;;0.90;;
21615;SDS011;10970;48.714;9.584;2022-08-03T09:37:15;1.50;;;1.40;;
21615;SDS011;10970;48.714;9.584;2022-08-03T09:39:43;1.60;;;1.43;;
21615;SDS011;10970;48.714;9.584;2022-08-03T09:42:13;1.20;;;1.20;;
21615;SDS011;10970;48.714;9.584;2022-08-03T09:44:48;1.43;;;1.33;;
21615;SDS011;10970;48.714;9.584;2022-08-03T09:47:15;0.90;;;0.90;;
21615;SDS011;10970;48.714;9.584;2022-08-03T09:49:59;1.40;;;1.30;;
21615;SDS011;10970;48.714;9.584;2022-08-03T09:52:30;1.57;;;1.37;;
21615;SDS011;10970;48.714;9.584;2022-08-03T09:54:57;1.20;;;1.10;;
21615;SDS011;10970;48.714;9.584;2022-08-03T09:57:24;0.93;;;0.93;;
21615;SDS011;10970;48.714;9.584;2022-08-03T09:59:51;1.63;;;1.53;;
21615;SDS011;10970;48.714;9.584;2022-08-03T10:02:21;2.07;;;1.00;;
21615;SDS011;10970;48.714;9.584;2022-08-03T10:04:48;2.00;;;1.37;;
21615;SDS011;10970;48.714;9.584;2022-08-03T10:07:21;1.20;;;1.03;;
21615;SDS011;10970;48.714;9.584;2022-08-03T10:09:58;1.90;;;1.43;;
21615;SDS011;10970;48.714;9.584;2022-08-03T10:12:26;1.70;;;1.60;;
21615;SDS011;10970;48.714;9.584;2022-08-03T10:14:52;1.23;;;1.13;;
21615;SDS011;10970;48.714;9.584;2022-08-03T10:17:18;1.47;;;1.37;;
21615;SDS011;10970;48.714;9.584;2022-08-03T10:19:45;2.10;;;1.03;;
21615;SDS011;10970;48.714;9.584;2022-08-03T10:25:02;1.27;;;1.17;;
21615;SDS011;10970;48.714;9.584;2022-08-03T10:27:31;1.23;;;1.10;;
21615;SDS011;10970;48.714;9.584;2022-08-03T10:30:03;1.50;;;1.40;;
21615;SDS011;10970;48.714;9.584;2022-08-03T10:35:12;2.03;;;1.63;;
21615;SDS011;10970;48.714;9.584;2022-08-03T10:37:40;3.13;;;1.40;;
21615;SDS011;10970;48.714;9.584;2022-08-03T10:40:07;1.20;;;1.10;;
21615;SDS011;10970;48.714;9.584;2022-08-03T10:42:38;1.43;;;1.33;;
21615;SDS011;10970;48.714;9.584;2022-08-03T10:45:06;1.40;;;1.30;;
21615;SDS011;10970;48.714;9.584;2022-08-03T10:47:38;1.67;;;1.57;;
21615;SDS011;10970;48.714;9.584;2022-08-03T10:50:05;1.67;;;1.57;;
21615;SDS011;10970;48.714;9.584;2022-08-03T10:52:31;1.30;;;1.20;;
21615;SDS011;10970;48.714;9.584;2022-08-03T10:54:57;1.37;;;1.27;;
21615;SDS011;10970;48.714;9.584;2022-08-03T11:00:15;1.20;;;1.10;;
21615;SDS011;10970;48.714;9.584;2022-08-03T11:05:37;1.30;;;1.20;;
21615;SDS011;10970;48.714;9.584;2022-08-03T11:08:22;4.80;;;1.80;;
21615;SDS011;10970;48.714;9.584;2022-08-03T11:10:57;1.43;;;1.33;;
21615;SDS011;10970;48.714;9.584;2022-08-03T11:13:26;1.50;;;1.40;;
21615;SDS011;10970;48.714;9.584;2022-08-03T11:15:56;1.90;;;1.43;;
21615;SDS011;10970;48.714;9.584;2022-08-03T11:18:23;1.23;;;1.13;;
21615;SDS011;10970;48.714;9.584;2022-08-03T11:20:53;1.43;;;1.33;;
21615;SDS011;10970;48.714;9.584;2022-08-03T11:23:38;1.40;;;1.30;;
21615;SDS011;10970;48.714;9.584;2022-08-03T11:26:09;1.50;;;1.40;;
21615;SDS011;10970;48.714;9.584;2022-08-03T11:28:40;1.90;;;1.80;;
21615;SDS011;10970;48.714;9.584;2022-08-03T11:31:49;1.40;;;1.30;;
21615;SDS011;10970;48.714;9.584;2022-08-03T11:34:05;1.60;;;1.50;;
21615;SDS011;10970;48.714;9.584;2022-08-03T11:39:22;1.77;;;1.40;;
21615;SDS011;10970;48.714;9.584;2022-08-03T11:44:50;1.93;;;1.50;;
21615;SDS011;10970;48.714;9.584;2022-08-03T11:47:20;1.20;;;1.10;;
21615;SDS011;10970;48.714;9.584;2022-08-03T11:49:47;1.50;;;1.27;;
21615;SDS011;10970;48.714;9.584;2022-08-03T11:52:13;2.03;;;1.67;;
21615;SDS011;10970;48.714;9.584;2022-08-03T11:54:41;1.40;;;1.30;;
21615;SDS011;10970;48.714;9.584;2022-08-03T11:57:07;2.07;;;1.40;;
21615;SDS011;10970;48.714;9.584;2022-08-03T11:59:36;1.90;;;1.70;;
21615;SDS011;10970;48.714;9.584;2022-08-03T12:02:09;1.30;;;1.20;;
21615;SDS011;10970;48.714;9.584;2022-08-03T12:04:52;1.53;;;1.43;;
21615;SDS011;10970;48.714;9.584;2022-08-03T12:07:22;1.33;;;1.20;;
21615;SDS011;10970;48.714;9.584;2022-08-03T12:12:35;1.50;;;1.07;;
21615;SDS011;10970;48.714;9.584;2022-08-03T12:15:02;1.00;;;0.97;;
21615;SDS011;10970;48.714;9.584;2022-08-03T12:17:35;4.00;;;1.37;;
21615;SDS011;10970;48.714;9.584;2022-08-03T12:20:03;1.50;;;1.30;;
21615;SDS011;10970;48.714;9.584;2022-08-03T12:22:30;1.27;;;1.17;;
21615;SDS011;10970;48.714;9.584;2022-08-03T12:24:56;1.33;;;1.23;;
21615;SDS011;10970;48.714;9.584;2022-08-03T12:27:25;1.63;;;1.30;;
21615;SDS011;10970;48.714;9.584;2022-08-03T12:29:56;1.40;;;1.30;;
21615;SDS011;10970;48.714;9.584;2022-08-03T12:32:23;2.20;;;1.17;;
21615;SDS011;10970;48.714;9.584;2022-08-03T12:34:52;1.47;;;1.37;;
21615;SDS011;10970;48.714;9.584;2022-08-03T12:37:19;1.33;;;1.23;;
21615;SDS011;10970;48.714;9.584;2022-08-03T12:39:53;1.37;;;1.10;;
21615;SDS011;10970;48.714;9.584;2022-08-03T12:42:20;1.60;;;1.50;;
21615;SDS011;10970;48.714;9.584;2022-08-03T12:47:49;1.77;;;1.67;;
21615;SDS011;10970;48.714;9.584;2022-08-03T12:50:25;1.30;;;1.20;;
21615;SDS011;10970;48.714;9.584;2022-08-03T12:52:51;1.50;;;1.17;;
21615;SDS011;10970;48.714;9.584;2022-08-03T12:55:20;1.63;;;1.50;;
21615;SDS011;10970;48.714;9.584;2022-08-03T12:57:46;4.90;;;2.30;;
21615;SDS011;10970;48.714;9.584;2022-08-03T13:00:14;1.63;;;1.50;;
21615;SDS011;10970;48.714;9.584;2022-08-03T13:02:40;1.17;;;1.00;;
21615;SDS011;10970;48.714;9.584;2022-08-03T13:05:09;2.10;;;1.43;;
21615;SDS011;10970;48.714;9.584;2022-08-03T13:07:39;1.37;;;1.27;;
21615;SDS011;10970;48.714;9.584;2022-08-03T13:10:06;1.37;;;1.27;;
21615;SDS011;10970;48.714;9.584;2022-08-03T13:12:32;1.60;;;1.50;;
21615;SDS011;10970;48.714;9.584;2022-08-03T13:15:00;1.60;;;1.50;;
21615;SDS011;10970;48.714;9.584;2022-08-03T13:17:26;1.90;;;1.17;;
21615;SDS011;10970;48.714;9.584;2022-08-03T13:19:52;1.53;;;1.43;;
21615;SDS011;10970;48.714;9.584;2022-08-03T13:22:19;2.17;;;1.30;;
21615;SDS011;10970;48.714;9.584;2022-08-03T13:24:50;1.63;;;1.30;;
21615;SDS011;10970;48.714;9.584;2022-08-03T13:27:22;1.23;;;1.13;;
21615;SDS011;10970;48.714;9.584;2022-08-03T13:29:48;1.20;;;1.10;;
21615;SDS011;10970;48.714;9.584;2022-08-03T13:32:14;1.33;;;1.23;;
21615;SDS011;10970;48.714;9.584;2022-08-03T13:34:41;1.60;;;1.40;;
21615;SDS011;10970;48.714;9.584;2022-08-03T13:37:06;1.00;;;0.90;;
21615;SDS011;10970;48.714;9.584;2022-08-03T13:39:32;1.10;;;1.10;;
21615;SDS011;10970;48.714;9.584;2022-08-03T13:41:58;1.73;;;1.27;;
21615;SDS011;10970;48.714;9.584;2022-08-03T13:44:25;1.20;;;1.10;;
21615;SDS011;10970;48.714;9.584;2022-08-03T13:46:51;1.30;;;1.20;;
21615;SDS011;10970;48.714;9.584;2022-08-03T13:49:17;1.43;;;1.33;;
21615;SDS011;10970;48.714;9.584;2022-08-03T13:51:43;0.80;;;0.80;;
21615;SDS011;10970;48.714;9.584;2022-08-03T13:54:09;1.23;;;1.13;;
21615;SDS011;10970;48.714;9.584;2022-08-03T13:56:35;1.70;;;1.60;;
21615;SDS011;10970;48.714;9.584;2022-08-03T13:59:01;1.60;;;1.50;;
21615;SDS011;10970;48.714;9.584;2022-08-03T14:01:27;1.67;;;1.57;;
21615;SDS011;10970;48.714;9.584;2022-08-03T14:03:53;2.13;;;1.57;;
21615;SDS011;10970;48.714;9.584;2022-08-03T14:06:20;1.50;;;1.40;;
21615;SDS011;10970;48.714;9.584;2022-08-03T14:08:47;1.50;;;1.20;;
21615;SDS011;10970;48.714;9.584;2022-08-03T14:11:13;1.87;;;1.20;;
21615;SDS011;10970;48.714;9.584;2022-08-03T14:13:40;1.20;;;1.10;;
21615;SDS011;10970;48.714;9.584;2022-08-03T14:16:06;1.50;;;1.30;;
21615;SDS011;10970;48.714;9.584;2022-08-03T14:18:32;1.30;;;1.10;;
21615;SDS011;10970;48.714;9.584;2022-08-03T14:20:58;1.37;;;1.00;;
21615;SDS011;10970;48.714;9.584;2022-08-03T14:23:25;1.50;;;1.40;;
21615;SDS011;10970;48.714;9.584;2022-08-03T14:25:51;1.53;;;1.20;;
21615;SDS011;10970;48.714;9.584;2022-08-03T14:28:17;1.33;;;1.23;;
21615;SDS011;10970;48.714;9.584;2022-08-03T14:30:44;1.70;;;1.40;;
21615;SDS011;10970;48.714;9.584;2022-08-03T14:33:10;1.43;;;1.33;;
21615;SDS011;10970;48.714;9.584;2022-08-03T14:35:36;1.33;;;1.17;;
21615;SDS011;10970;48.714;9.584;2022-08-03T14:38:02;1.40;;;1.30;;
21615;SDS011;10970;48.714;9.584;2022-08-03T14:40:28;1.40;;;1.30;;
21615;SDS011;10970;48.714;9.584;2022-08-03T14:42:54;1.20;;;1.10;;
21615;SDS011;10970;48.714;9.584;2022-08-03T14:45:20;1.40;;;1.30;;
21615;SDS011;10970;48.714;9.584;2022-08-03T14:47:47;1.37;;;1.27;;
21615;SDS011;10970;48.714;9.584;2022-08-03T14:50:12;2.17;;;1.60;;
21615;SDS011;10970;48.714;9.584;2022-08-03T14:52:38;1.70;;;1.60;;
21615;SDS011;10970;48.714;9.584;2022-08-03T14:55:05;1.27;;;1.17;;
21615;SDS011;10970;48.714;9.584;2022-08-03T14:57:31;1.37;;;1.27;;
21615;SDS011;10970;48.714;9.584;2022-08-03T14:59:57;1.23;;;1.13;;
21615;SDS011;10970;48.714;9.584;2022-08-03T15:02:23;0.80;;;0.80;;
21615;SDS011;10970;48.714;9.584;2022-08-03T15:04:49;1.37;;;1.27;;
21615;SDS011;10970;48.714;9.584;2022-08-03T15:07:15;1.00;;;0.80;;
21615;SDS011;10970;48.714;9.584;2022-08-03T15:09:41;1.27;;;1.17;;
21615;SDS011;10970;48.714;9.584;2022-08-03T15:12:07;1.13;;;1.10;;
21615;SDS011;10970;48.714;9.584;2022-08-03T15:14:33;0.90;;;0.90;;
21615;SDS011;10970;48.714;9.584;2022-08-03T15:16:59;1.40;;;1.10;;
21615;SDS011;10970;48.714;9.584;2022-08-03T15:19:25;1.67;;;1.30;;
21615;SDS011;10970;48.714;9.584;2022-08-03T15:21:51;1.53;;;1.10;;
21615;SDS011;10970;48.714;9.584;2022-08-03T15:24:17;1.23;;;1.13;;
21615;SDS011;10970;48.714;9.584;2022-08-03T15:26:43;1.37;;;1.27;;
21615;SDS011;10970;48.714;9.584;2022-08-03T15:29:08;1.60;;;1.50;;
21615;SDS011;10970;48.714;9.584;2022-08-03T15:31:34;1.07;;;1.00;;